Time;durP1;ratioP1;P1;durP2;ratioP2;P2;SDS_P1;SDS_P2;PMS_P1;PMS_P2;Temp;Humidity;BMP_temperature;BMP_pressure;BME280_temperature;BME280_humidity;BME280_pressure;Samples;Min_cycle;Max_cycle;Signal;HPM_P1;HPM_P2
2022/05/20 00:01:51;;;;;;;3.05;2.20;;;18.80;36.50;;;;;;5013879;28;20030;-73
2022/05/20 00:04:17;;;;;;;3.13;2.10;;;18.80;36.50;;;;;;5014308;28;20475;-73
2022/05/20 00:06:43;;;;;;;3.63;1.90;;;18.80;36.50;;;;;;5012753;28;20038;-73
2022/05/20 00:09:09;;;;;;;3.58;2.00;;;18.80;36.50;;;;;;5013981;28;20026;-73
2022/05/20 00:11:34;;;;;;;2.78;2.20;;;18.70;36.50;;;;;;5013711;28;20041;-73
2022/05/20 00:14:01;;;;;;;4.35;2.30;;;18.70;36.50;;;;;;5014231;28;20444;-73
2022/05/20 00:16:29;;;;;;;3.97;2.20;;;18.70;36.50;;;;;;5013960;28;20034;-72
2022/05/20 00:18:55;;;;;;;2.78;2.08;;;18.70;36.50;;;;;;5013775;28;20120;-72
2022/05/20 00:21:20;;;;;;;2.70;2.10;;;18.70;36.50;;;;;;5014008;28;20445;-72
2022/05/20 00:23:46;;;;;;;2.85;2.30;;;18.60;36.50;;;;;;5013905;28;20057;-73
2022/05/20 00:26:12;;;;;;;2.55;2.17;;;18.60;36.50;;;;;;5014277;28;20133;-72
2022/05/20 00:28:37;;;;;;;4.72;2.30;;;18.60;36.50;;;;;;5014015;28;20065;-72
2022/05/20 00:31:09;;;;;;;2.63;2.10;;;18.60;36.30;;;;;;5013766;28;20034;-72
2022/05/20 00:33:37;;;;;;;2.58;2.00;;;18.60;36.40;;;;;;5013610;28;20057;-72
2022/05/20 00:36:04;;;;;;;4.05;2.38;;;18.60;36.40;;;;;;5013592;28;20105;-72
2022/05/20 00:38:30;;;;;;;2.20;1.90;;;18.50;36.40;;;;;;5013609;28;20380;-71
2022/05/20 00:41:00;;;;;;;3.00;2.22;;;18.60;36.50;;;;;;5013719;28;20105;-71
2022/05/20 00:43:29;;;;;;;3.08;2.40;;;18.50;36.50;;;;;;5014219;28;20038;-72
2022/05/20 00:45:57;;;;;;;1.98;1.77;;;18.50;36.40;;;;;;5015900;28;20038;-72
2022/05/20 00:48:23;;;;;;;4.10;2.28;;;18.50;36.40;;;;;;5017446;28;20042;-72
2022/05/20 00:51:10;;;;;;;2.00;1.80;;;18.50;36.40;;;;;;5017684;28;20445;-72
2022/05/20 00:53:48;;;;;;;2.00;1.80;;;18.50;36.40;;;;;;5017239;28;20164;-72
2022/05/20 00:56:18;;;;;;;3.08;2.17;;;18.50;36.40;;;;;;5017193;28;20033;-72
2022/05/20 00:58:44;;;;;;;3.55;1.85;;;18.50;36.50;;;;;;5017214;28;20495;-72
2022/05/20 01:01:10;;;;;;;2.05;1.85;;;18.50;36.40;;;;;;5015878;28;20387;-72
2022/05/20 01:03:37;;;;;;;2.33;2.13;;;18.50;36.40;;;;;;5016964;28;20030;-72
2022/05/20 01:06:03;;;;;;;2.63;1.90;;;18.50;36.40;;;;;;5017226;28;20109;-72
2022/05/20 01:08:32;;;;;;;2.58;1.95;;;18.40;36.30;;;;;;5017120;28;20072;-72
2022/05/20 01:10:58;;;;;;;2.75;1.80;;;18.40;36.40;;;;;;5016108;28;20030;-72
2022/05/20 01:13:26;;;;;;;3.58;2.10;;;18.40;36.40;;;;;;5016986;28;20032;-72
2022/05/20 01:15:54;;;;;;;1.95;1.70;;;18.40;36.50;;;;;;5016994;28;20041;-72
2022/05/20 01:18:20;;;;;;;2.30;1.80;;;18.40;36.50;;;;;;5016904;28;20034;-72
2022/05/20 01:20:50;;;;;;;1.95;1.83;;;18.40;36.50;;;;;;5016928;28;20453;-72
2022/05/20 01:23:19;;;;;;;2.53;1.88;;;18.50;36.50;;;;;;5016703;28;20496;-71
2022/05/20 01:25:51;;;;;;;2.08;1.63;;;18.50;36.60;;;;;;5016859;28;20075;-71
2022/05/20 01:28:19;;;;;;;2.40;1.70;;;18.50;36.50;;;;;;5015273;28;20041;-71
2022/05/20 01:30:49;;;;;;;2.63;1.98;;;18.50;36.50;;;;;;5016668;28;20117;-72
2022/05/20 01:33:32;;;;;;;2.10;1.90;;;18.50;36.40;;;;;;5016986;28;20156;-71
2022/05/20 01:36:00;;;;;;;2.47;1.80;;;18.50;36.50;;;;;;5016886;28;20114;-71
2022/05/20 01:38:26;;;;;;;2.10;1.90;;;18.50;37.00;;;;;;5016555;28;20040;-72
2022/05/20 01:41:07;;;;;;;2.13;1.73;;;18.50;36.50;;;;;;5016545;28;20029;-72
2022/05/20 01:43:44;;;;;;;1.63;1.50;;;18.40;36.40;;;;;;5016544;28;20037;-72
2022/05/20 01:46:33;;;;;;;3.38;1.80;;;18.40;36.40;;;;;;5016356;28;20061;-71
2022/05/20 01:49:21;;;;;;;2.10;1.70;;;18.40;36.40;;;;;;5016087;28;20077;-72
2022/05/20 01:52:05;;;;;;;2.80;2.03;;;18.40;36.50;;;;;;5016312;28;20030;-72
2022/05/20 01:54:38;;;;;;;1.77;1.60;;;18.40;36.50;;;;;;5016517;28;20452;-72
2022/05/20 01:57:30;;;;;;;2.53;1.80;;;18.40;36.50;;;;;;5016159;28;20531;-72
2022/05/20 02:00:11;;;;;;;1.80;1.70;;;18.40;36.20;;;;;;5016489;28;20084;-72
2022/05/20 02:02:52;;;;;;;1.63;1.48;;;18.40;36.40;;;;;;5015305;28;20029;-72
2022/05/20 02:05:36;;;;;;;1.50;1.40;;;18.40;36.50;;;;;;5016087;28;20022;-72
2022/05/20 02:08:08;;;;;;;2.30;1.60;;;18.40;36.50;;;;;;5015771;28;20053;-73
2022/05/20 02:10:43;;;;;;;2.00;1.60;;;18.40;36.60;;;;;;5015886;28;20112;-72
2022/05/20 02:13:12;;;;;;;2.08;1.63;;;18.40;36.50;;;;;;5014836;28;20037;-71
2022/05/20 02:15:49;;;;;;;1.77;1.50;;;18.40;36.60;;;;;;5015938;28;20032;-71
2022/05/20 02:18:27;;;;;;;1.70;1.60;;;18.50;36.60;;;;;;5016184;28;20464;-72
2022/05/20 02:20:58;;;;;;;1.65;1.55;;;18.50;36.50;;;;;;5014636;28;20381;-71
2022/05/20 02:23:31;;;;;;;1.83;1.50;;;18.40;36.50;;;;;;5015968;28;20026;-71
2022/05/20 02:26:06;;;;;;;3.00;1.65;;;18.40;36.50;;;;;;5015451;28;20492;-72
2022/05/20 02:28:40;;;;;;;1.67;1.50;;;18.50;36.60;;;;;;5014303;28;20040;-72
2022/05/20 02:31:11;;;;;;;2.30;1.63;;;18.50;36.50;;;;;;5015589;28;20114;-73
2022/05/20 02:33:37;;;;;;;1.70;1.50;;;18.50;36.50;;;;;;5015416;28;20032;-71
2022/05/20 02:36:25;;;;;;;1.70;1.48;;;18.60;36.60;;;;;;5015696;28;20045;-71
2022/05/20 02:38:50;;;;;;;1.58;1.48;;;18.60;36.50;;;;;;5015654;28;20022;-72
2022/05/20 02:41:16;;;;;;;1.50;1.40;;;18.60;36.50;;;;;;5015340;28;20037;-72
2022/05/20 02:43:43;;;;;;;1.50;1.40;;;18.60;36.40;;;;;;5015300;28;20092;-71
2022/05/20 02:46:09;;;;;;;2.08;1.60;;;18.60;36.50;;;;;;5015440;28;20033;-72
2022/05/20 02:48:36;;;;;;;1.60;1.50;;;18.60;36.40;;;;;;5015093;28;20121;-72
2022/05/20 02:51:02;;;;;;;1.70;1.48;;;18.60;36.40;;;;;;5015079;28;20499;-71
2022/05/20 02:53:28;;;;;;;1.60;1.50;;;18.70;36.50;;;;;;5015224;28;20029;-72
2022/05/20 02:55:54;;;;;;;2.00;1.80;;;18.70;36.50;;;;;;5015108;28;20025;-72
2022/05/20 03:04:09;;;;;;;1.63;1.52;;;18.80;36.40;;;;;;5015088;28;20044;-72
2022/05/20 03:06:36;;;;;;;3.35;1.65;;;18.80;36.30;;;;;;5014250;28;20109;-72
2022/05/20 03:09:03;;;;;;;1.73;1.50;;;18.90;36.30;;;;;;5014678;28;20053;-72
2022/05/20 03:11:28;;;;;;;1.38;1.27;;;18.90;36.30;;;;;;5014896;28;20030;-72
2022/05/20 03:13:54;;;;;;;2.10;1.55;;;18.90;36.30;;;;;;5014683;28;20486;-72
2022/05/20 03:16:20;;;;;;;1.20;1.10;;;18.90;36.30;;;;;;5013735;28;20025;-72
2022/05/20 03:18:45;;;;;;;2.30;1.63;;;18.90;36.30;;;;;;5013613;28;20034;-72
2022/05/20 03:21:11;;;;;;;1.60;1.45;;;19.00;36.30;;;;;;5014429;28;20034;-72
2022/05/20 03:23:36;;;;;;;1.38;1.27;;;19.00;36.20;;;;;;5014913;28;20049;-71
2022/05/20 03:26:04;;;;;;;1.50;1.40;;;19.10;36.20;;;;;;5014478;28;20076;-72
2022/05/20 03:28:30;;;;;;;1.70;1.40;;;19.10;36.20;;;;;;5014263;28;20435;-71
2022/05/20 03:31:07;;;;;;;1.88;1.40;;;19.10;36.20;;;;;;5014424;28;20030;-72
2022/05/20 03:33:33;;;;;;;1.30;1.20;;;19.10;36.20;;;;;;5013270;28;20456;-73
2022/05/20 03:35:59;;;;;;;1.50;1.40;;;19.10;36.20;;;;;;5014887;28;20061;-73
2022/05/20 03:38:26;;;;;;;1.33;1.20;;;19.10;36.30;;;;;;5014350;28;20113;-72
2022/05/20 03:40:51;;;;;;;1.48;1.33;;;19.10;36.30;;;;;;5014241;28;20026;-72
2022/05/20 03:43:17;;;;;;;2.17;1.30;;;19.10;36.30;;;;;;5013115;28;20041;-72
2022/05/20 03:45:43;;;;;;;1.85;1.38;;;19.10;36.30;;;;;;5014817;28;20038;-72
2022/05/20 03:48:10;;;;;;;1.70;1.52;;;19.10;36.40;;;;;;5014154;28;20045;-72
2022/05/20 03:50:35;;;;;;;2.67;1.50;;;19.10;36.40;;;;;;5013229;28;20058;-72
2022/05/20 03:53:02;;;;;;;2.28;1.30;;;19.10;36.40;;;;;;5014023;28;20064;-72
2022/05/20 03:55:28;;;;;;;2.08;1.60;;;19.10;36.40;;;;;;5014433;28;20024;-72
2022/05/20 03:57:53;;;;;;;1.40;1.30;;;19.10;36.40;;;;;;5013972;28;20034;-72
2022/05/20 04:00:19;;;;;;;1.30;1.20;;;19.20;36.40;;;;;;5012887;28;20033;-72
2022/05/20 04:02:45;;;;;;;1.65;1.50;;;19.20;36.40;;;;;;5013972;28;20033;-71
2022/05/20 04:05:11;;;;;;;1.70;1.40;;;19.20;36.40;;;;;;5012836;28;20481;-72
2022/05/20 04:07:38;;;;;;;2.33;1.48;;;19.20;36.40;;;;;;5014027;28;20030;-72
2022/05/20 04:10:06;;;;;;;1.60;1.50;;;19.30;36.50;;;;;;5012764;28;20033;-72
2022/05/20 04:12:32;;;;;;;1.48;1.38;;;19.30;36.50;;;;;;5013909;28;20037;-71
2022/05/20 04:14:59;;;;;;;1.55;1.45;;;19.30;36.50;;;;;;5013949;28;20030;-72
2022/05/20 04:17:26;;;;;;;2.00;1.33;;;19.30;36.60;;;;;;5013920;28;20392;-72
2022/05/20 04:19:52;;;;;;;2.33;1.50;;;19.20;36.60;;;;;;5016378;28;20029;-72
2022/05/20 04:22:28;;;;;;;2.90;1.67;;;19.30;36.60;;;;;;5017671;28;20026;-72
2022/05/20 04:24:54;;;;;;;2.53;1.42;;;19.20;36.60;;;;;;5016474;28;20077;-73
2022/05/20 04:27:19;;;;;;;1.10;1.10;;;19.20;36.60;;;;;;5016420;28;20412;-72
2022/05/20 04:29:45;;;;;;;2.75;1.50;;;19.20;36.70;;;;;;5017521;28;20036;-72
2022/05/20 04:32:11;;;;;;;3.65;1.63;;;19.20;36.80;;;;;;5018267;28;20040;-72
2022/05/20 04:34:37;;;;;;;1.40;1.30;;;19.30;36.80;;;;;;5017944;28;20029;-72
2022/05/20 04:37:03;;;;;;;1.50;1.40;;;19.30;36.80;;;;;;5017368;28;20354;-72
2022/05/20 04:39:29;;;;;;;1.60;1.50;;;19.30;36.80;;;;;;5017644;28;20460;-72
2022/05/20 04:47:27;;;;;;;1.77;1.50;;;19.40;36.80;;;;;;5017807;28;20130;-72
2022/05/20 04:49:53;;;;;;;2.72;1.30;;;19.40;36.80;;;;;;5017370;28;20469;-72
2022/05/20 04:52:19;;;;;;;1.10;1.10;;;19.40;36.90;;;;;;5017245;28;20030;-71
2022/05/20 04:54:51;;;;;;;2.25;1.60;;;19.40;36.90;;;;;;5017338;28;20072;-72
2022/05/20 04:57:41;;;;;;;1.50;1.40;;;19.40;36.90;;;;;;5017808;28;20030;-73
2022/05/20 05:00:27;;;;;;;2.30;1.50;;;19.40;37.00;;;;;;5019477;28;20046;-72
2022/05/20 05:02:53;;;;;;;1.70;1.60;;;19.30;36.90;;;;;;5017552;28;20038;-72
2022/05/20 05:05:22;;;;;;;2.47;1.55;;;19.30;36.90;;;;;;5015854;28;20030;-72
2022/05/20 05:07:51;;;;;;;1.85;1.40;;;19.30;37.00;;;;;;5017108;28;20088;-72
2022/05/20 05:10:20;;;;;;;1.65;1.42;;;19.30;37.10;;;;;;5015669;28;20034;-73
2022/05/20 05:12:47;;;;;;;1.60;1.38;;;19.30;37.10;;;;;;5017047;28;20079;-72
2022/05/20 05:15:14;;;;;;;2.60;1.70;;;19.30;37.10;;;;;;5016763;28;20049;-72
2022/05/20 05:20:26;;;;;;;1.52;1.42;;;19.40;37.10;;;;;;5016895;28;20048;-72
2022/05/20 05:22:53;;;;;;;1.60;1.50;;;19.40;37.10;;;;;;5016843;28;20033;-72
2022/05/20 05:25:22;;;;;;;1.40;1.30;;;19.40;37.10;;;;;;5015444;28;20050;-72
2022/05/20 05:27:48;;;;;;;1.60;1.50;;;19.40;37.10;;;;;;5016759;28;20022;-73
2022/05/20 05:30:15;;;;;;;1.65;1.55;;;19.40;37.20;;;;;;5014622;28;20057;-72
2022/05/20 05:32:41;;;;;;;1.40;1.30;;;19.40;37.20;;;;;;5016312;28;20061;-72
2022/05/20 05:35:13;;;;;;;1.60;1.50;;;19.40;37.20;;;;;;5016619;28;20428;-72
2022/05/20 05:37:40;;;;;;;1.60;1.50;;;19.40;37.20;;;;;;5016477;28;20036;-72
2022/05/20 05:40:08;;;;;;;1.70;1.60;;;19.40;37.20;;;;;;5016451;28;20491;-72
2022/05/20 05:42:34;;;;;;;1.90;1.40;;;19.40;37.30;;;;;;5016000;28;20084;-73
2022/05/20 05:45:00;;;;;;;1.48;1.33;;;19.40;37.40;;;;;;5016028;28;20476;-72
2022/05/20 05:47:26;;;;;;;1.60;1.20;;;19.50;37.50;;;;;;5016361;28;20037;-72
2022/05/20 05:49:52;;;;;;;1.73;1.63;;;19.50;37.60;;;;;;5016164;28;20036;-72
2022/05/20 05:52:17;;;;;;;1.70;1.55;;;19.50;37.70;;;;;;5016387;28;20034;-72
2022/05/20 05:54:43;;;;;;;1.73;1.48;;;19.50;37.80;;;;;;5016407;28;20104;-72
2022/05/20 05:57:09;;;;;;;1.70;1.60;;;19.50;37.90;;;;;;5016310;28;20527;-72
2022/05/20 05:59:41;;;;;;;2.17;1.60;;;19.50;38.10;;;;;;5014927;28;20065;-72
2022/05/20 06:02:10;;;;;;;1.45;1.35;;;19.50;38.30;;;;;;5015203;28;20030;-72
2022/05/20 06:04:36;;;;;;;1.77;1.25;;;19.50;38.40;;;;;;5016027;28;20026;-72
2022/05/20 06:07:03;;;;;;;1.50;1.40;;;19.50;38.60;;;;;;5014874;28;20516;-71
2022/05/20 06:09:29;;;;;;;1.83;1.67;;;19.50;38.60;;;;;;5015615;28;20036;-72
2022/05/20 06:11:54;;;;;;;1.90;1.60;;;19.50;38.60;;;;;;5014524;28;20113;-73
2022/05/20 06:14:20;;;;;;;1.75;1.55;;;19.60;38.80;;;;;;5016321;28;20030;-73
2022/05/20 06:16:46;;;;;;;2.95;1.50;;;19.60;38.90;;;;;;5015755;28;20136;-73
2022/05/20 06:19:13;;;;;;;1.88;1.60;;;19.70;39.10;;;;;;5015718;28;20025;-72
2022/05/20 06:21:40;;;;;;;3.08;1.80;;;19.80;39.20;;;;;;5015914;28;20022;-71
2022/05/20 06:24:08;;;;;;;2.67;1.50;;;19.80;39.30;;;;;;5015709;28;20112;-72
2022/05/20 06:26:35;;;;;;;1.40;1.30;;;19.80;39.40;;;;;;5014244;28;20049;-72
2022/05/20 06:29:00;;;;;;;2.65;1.60;;;19.80;39.40;;;;;;5015544;28;20030;-71
2022/05/20 06:31:26;;;;;;;2.25;1.52;;;19.80;39.60;;;;;;5015711;28;20376;-72
2022/05/20 06:33:52;;;;;;;2.47;1.60;;;19.80;39.70;;;;;;5015476;28;20049;-73
2022/05/20 06:41:47;;;;;;;1.63;1.42;;;19.90;40.00;;;;;;5014813;28;20587;-71
2022/05/20 06:44:12;;;;;;;1.58;1.48;;;19.90;40.10;;;;;;5015329;28;20113;-72
2022/05/20 06:46:38;;;;;;;1.90;1.70;;;19.90;40.40;;;;;;5015271;28;20061;-72
2022/05/20 06:49:04;;;;;;;1.73;1.63;;;19.90;40.70;;;;;;5015343;28;20405;-71
2022/05/20 06:51:33;;;;;;;1.80;1.70;;;19.90;40.80;;;;;;5013720;28;20030;-72
2022/05/20 06:54:00;;;;;;;1.52;1.42;;;19.80;40.90;;;;;;5014909;28;20037;-71
2022/05/20 06:56:28;;;;;;;3.95;1.83;;;19.80;41.20;;;;;;5015311;28;20030;-72
2022/05/20 06:58:55;;;;;;;2.72;2.03;;;19.70;41.40;;;;;;5014951;28;20057;-72
2022/05/20 07:01:21;;;;;;;2.70;1.60;;;19.70;41.80;;;;;;5014873;28;20064;-72
2022/05/20 07:03:47;;;;;;;2.10;1.80;;;19.70;42.40;;;;;;5014734;28;20030;-72
2022/05/20 07:06:14;;;;;;;2.80;1.77;;;19.60;42.30;;;;;;5014910;28;20034;-72
2022/05/20 07:08:40;;;;;;;1.73;1.50;;;19.60;42.30;;;;;;5015146;28;20032;-71
2022/05/20 07:11:06;;;;;;;2.10;1.85;;;19.50;42.40;;;;;;5015086;28;20037;-72
2022/05/20 07:13:32;;;;;;;3.70;1.73;;;19.50;42.50;;;;;;5013442;28;20053;-72
2022/05/20 07:15:59;;;;;;;1.67;1.55;;;19.50;43.10;;;;;;5014604;28;20054;-72
2022/05/20 07:18:28;;;;;;;2.10;1.90;;;19.40;43.20;;;;;;5013136;28;20030;-72
2022/05/20 07:20:54;;;;;;;2.55;1.73;;;19.40;43.40;;;;;;5013563;28;20084;-72
2022/05/20 07:23:22;;;;;;;1.92;1.40;;;19.50;43.30;;;;;;5013315;28;20033;-73
2022/05/20 07:25:50;;;;;;;2.25;1.80;;;19.50;43.40;;;;;;5013028;28;20396;-71
2022/05/20 07:28:15;;;;;;;2.60;1.80;;;19.60;43.60;;;;;;5013566;28;20030;-71
2022/05/20 07:30:42;;;;;;;1.92;1.77;;;19.70;43.60;;;;;;5014236;28;20523;-71
2022/05/20 07:33:08;;;;;;;1.67;1.52;;;19.70;43.70;;;;;;5014069;28;20025;-71
2022/05/20 07:35:35;;;;;;;2.30;2.10;;;19.70;44.00;;;;;;5014421;28;20044;-73
2022/05/20 07:38:01;;;;;;;1.85;1.65;;;19.80;44.00;;;;;;5014731;28;20068;-71
2022/05/20 07:40:27;;;;;;;4.68;1.75;;;19.80;44.20;;;;;;5014645;28;20061;-72
2022/05/20 07:42:52;;;;;;;1.90;1.70;;;19.90;44.40;;;;;;5013119;28;20072;-72
2022/05/20 07:45:18;;;;;;;2.72;2.28;;;19.90;44.40;;;;;;5014223;28;20034;-72
2022/05/20 07:47:45;;;;;;;1.77;1.50;;;20.00;44.50;;;;;;5013926;28;20038;-71
2022/05/20 07:50:14;;;;;;;1.90;1.52;;;19.90;44.50;;;;;;5014378;28;20361;-72
2022/05/20 07:55:32;;;;;;;2.10;1.73;;;20.00;44.70;;;;;;5014265;28;20033;-72
2022/05/20 07:57:58;;;;;;;1.75;1.65;;;20.00;44.80;;;;;;5014098;28;20388;-71
2022/05/20 08:00:25;;;;;;;1.63;1.38;;;20.00;44.80;;;;;;5013848;28;20468;-72
2022/05/20 08:02:52;;;;;;;2.15;1.58;;;20.00;44.90;;;;;;5014034;28;20056;-72
2022/05/20 08:05:20;;;;;;;2.00;1.80;;;20.10;45.00;;;;;;5012544;28;20026;-72
2022/05/20 08:07:47;;;;;;;2.10;1.50;;;20.10;45.00;;;;;;5014676;28;20053;-74
2022/05/20 08:10:17;;;;;;;1.90;1.75;;;20.20;45.00;;;;;;5013744;28;20085;-72
2022/05/20 08:12:43;;;;;;;1.92;1.75;;;20.30;45.00;;;;;;5013798;28;20030;-72
2022/05/20 08:15:09;;;;;;;2.90;1.95;;;20.30;45.00;;;;;;5013870;28;20160;-73
2022/05/20 08:17:36;;;;;;;2.72;2.05;;;20.40;45.00;;;;;;5013571;28;20033;-73
2022/05/20 08:20:04;;;;;;;2.25;1.88;;;20.40;45.00;;;;;;5013811;28;20117;-72
2022/05/20 08:22:30;;;;;;;2.55;1.90;;;20.50;45.00;;;;;;5013733;28;20037;-72
2022/05/20 08:24:58;;;;;;;2.35;1.63;;;20.60;45.00;;;;;;5012265;28;20050;-71
2022/05/20 08:27:26;;;;;;;2.10;1.88;;;20.60;45.00;;;;;;5013583;28;20124;-71
2022/05/20 08:29:52;;;;;;;1.80;1.65;;;20.70;45.00;;;;;;5013753;28;20483;-72
2022/05/20 08:32:18;;;;;;;4.75;2.85;;;20.80;45.10;;;;;;5013813;28;20022;-72
2022/05/20 08:34:46;;;;;;;3.33;3.03;;;20.90;45.10;;;;;;5013762;28;20109;-72
2022/05/20 08:37:13;;;;;;;3.58;2.55;;;20.90;45.10;;;;;;5012226;28;20022;-73
2022/05/20 08:39:39;;;;;;;3.53;2.50;;;21.00;45.10;;;;;;5013705;28;20117;-72
2022/05/20 08:42:09;;;;;;;3.00;2.40;;;21.10;45.10;;;;;;5013675;28;20465;-73
2022/05/20 08:44:36;;;;;;;2.97;2.40;;;21.20;45.10;;;;;;5013760;28;20439;-73
2022/05/20 08:47:22;;;;;;;4.07;1.92;;;21.30;45.20;;;;;;5013439;28;20040;-72
2022/05/20 08:49:54;;;;;;;2.33;2.08;;;21.40;45.50;;;;;;5012308;28;20064;-72
2022/05/20 08:52:20;;;;;;;2.85;2.33;;;21.50;45.00;;;;;;5012050;28;20030;-73
2022/05/20 08:54:46;;;;;;;3.15;2.50;;;21.50;45.00;;;;;;5013605;28;20077;-73
2022/05/20 08:57:21;;;;;;;2.60;2.13;;;21.60;45.00;;;;;;5012125;28;20081;-73
2022/05/20 08:59:46;;;;;;;4.55;3.10;;;21.70;44.90;;;;;;5013651;28;20025;-67
2022/05/20 09:02:12;;;;;;;3.58;3.15;;;21.70;44.90;;;;;;5013565;28;20030;-67
2022/05/20 09:05:01;;;;;;;3.78;2.90;;;21.90;44.90;;;;;;5013311;28;20084;-69
2022/05/20 09:07:57;;;;;;;5.78;2.75;;;22.00;45.20;;;;;;5016247;28;20045;-70
2022/05/20 09:10:32;;;;;;;3.15;2.53;;;22.10;44.80;;;;;;5021086;28;20057;-69
2022/05/20 09:16:21;;;;;;;3.15;2.17;;;22.30;45.20;;;;;;5016674;28;20460;-68
2022/05/20 09:18:49;;;;;;;3.00;2.47;;;22.40;44.60;;;;;;5015874;28;20033;-67
2022/05/20 09:21:28;;;;;;;2.70;2.30;;;22.40;44.40;;;;;;5016706;28;20052;-68
2022/05/20 09:23:57;;;;;;;2.45;2.08;;;22.60;44.60;;;;;;5015250;28;20073;-69
2022/05/20 09:26:32;;;;;;;2.75;2.17;;;22.60;44.40;;;;;;5015132;28;20415;-68
2022/05/20 09:29:12;;;;;;;3.03;2.22;;;22.60;44.50;;;;;;5016361;28;20056;-67
2022/05/20 09:31:48;;;;;;;3.75;2.40;;;22.70;44.40;;;;;;5027726;28;20533;-67
2022/05/20 09:34:30;;;;;;;2.80;2.35;;;22.80;44.40;;;;;;5035411;28;20538;-67
2022/05/20 09:37:00;;;;;;;4.97;2.70;;;22.80;44.20;;;;;;5034448;28;20383;-66
2022/05/20 09:39:35;;;;;;;2.88;2.20;;;22.80;44.20;;;;;;5035497;28;20031;-66
2022/05/20 09:42:12;;;;;;;2.72;2.30;;;22.80;44.20;;;;;;5029779;28;20033;-67
2022/05/20 09:44:41;;;;;;;2.63;2.20;;;22.80;44.30;;;;;;5024239;28;20468;-67
2022/05/20 09:47:32;;;;;;;3.20;2.13;;;22.80;44.30;;;;;;5016253;28;20037;-66
2022/05/20 09:50:24;;;;;;;3.25;1.98;;;22.80;44.40;;;;;;5014516;28;20030;-67
2022/05/20 09:53:23;;;;;;;2.55;2.10;;;22.70;44.40;;;;;;5014313;28;20026;-67
2022/05/20 09:55:48;;;;;;;2.45;1.92;;;22.70;44.50;;;;;;5028722;28;20022;-67
2022/05/20 09:58:27;;;;;;;2.55;2.35;;;22.60;44.40;;;;;;5032234;28;20092;-67
2022/05/20 10:01:22;;;;;;;3.33;2.40;;;22.60;44.60;;;;;;5023301;28;20032;-67
2022/05/20 10:03:54;;;;;;;;;;;22.50;44.90;;;;;;5017580;28;20045;-68
2022/05/20 10:06:45;;;;;;;3.20;2.00;;;22.40;45.10;;;;;;5014308;28;19920;-68
2022/05/20 10:09:26;;;;;;;3.78;2.03;;;22.40;44.90;;;;;;5015650;28;20025;-67
2022/05/20 10:11:59;;;;;;;2.83;2.30;;;22.40;44.80;;;;;;5016035;28;20042;-66
2022/05/20 10:14:34;;;;;;;3.97;2.22;;;22.40;44.80;;;;;;5014763;28;20416;-68
2022/05/20 10:17:12;;;;;;;2.45;2.10;;;22.50;45.00;;;;;;5014580;28;20022;-67
2022/05/20 10:20:15;;;;;;;2.25;1.88;;;22.60;45.10;;;;;;5014638;28;20034;-66
2022/05/20 10:22:52;;;;;;;2.65;1.80;;;22.60;45.30;;;;;;5015901;28;20087;-66
2022/05/20 10:25:24;;;;;;;2.58;2.00;;;22.70;45.00;;;;;;5014219;28;20050;-67
2022/05/20 10:27:55;;;;;;;2.60;2.20;;;22.80;45.00;;;;;;5015508;28;20037;-67
2022/05/20 10:33:15;;;;;;;2.17;1.98;;;23.00;45.00;;;;;;5015432;28;20396;-67
2022/05/20 10:36:14;;;;;;;2.25;2.00;;;23.10;44.90;;;;;;5014105;28;20381;-66
2022/05/20 10:38:51;;;;;;;2.40;1.88;;;23.00;45.10;;;;;;5014007;28;20042;-68
2022/05/20 10:41:31;;;;;;;2.10;1.90;;;23.00;44.90;;;;;;5015804;28;20026;-67
2022/05/20 10:50:26;;;;;;;3.17;1.80;;;23.00;45.10;;;;;;5015068;28;20445;-68
2022/05/20 10:53:31;;;;;;;2.60;2.15;;;23.00;45.30;;;;;;5014817;28;20530;-66
2022/05/20 10:56:19;;;;;;;2.58;2.20;;;23.10;45.40;;;;;;5013794;28;20030;-68
2022/05/20 10:59:06;;;;;;;2.97;2.10;;;23.10;45.20;;;;;;5013885;28;20034;-66
2022/05/20 11:01:40;;;;;;;2.83;2.38;;;23.10;45.20;;;;;;5014815;28;20036;-66
2022/05/20 11:04:33;;;;;;;2.63;2.40;;;23.20;45.30;;;;;;5014872;28;20468;-68
2022/05/20 11:07:02;;;;;;;3.40;2.63;;;23.10;45.40;;;;;;5014762;28;20471;-68
2022/05/20 11:09:52;;;;;;;2.58;2.30;;;23.10;45.80;;;;;;5014486;28;20041;-67
2022/05/20 11:12:58;;;;;;;4.10;2.40;;;23.20;45.30;;;;;;5015382;28;20373;-67
2022/05/20 11:15:31;;;;;;;3.10;2.40;;;23.20;45.40;;;;;;5005850;28;20030;-67
2022/05/20 11:18:14;;;;;;;2.87;2.13;;;23.20;45.20;;;;;;5015050;28;20076;-67
2022/05/20 11:21:01;;;;;;;2.10;1.83;;;23.30;45.10;;;;;;5014669;28;20305;-68
2022/05/20 11:23:48;;;;;;;2.13;1.88;;;23.30;45.10;;;;;;5014746;28;20030;-67
2022/05/20 11:26:41;;;;;;;2.35;1.85;;;23.40;44.90;;;;;;5014678;28;20050;-67
2022/05/20 11:29:41;;;;;;;2.72;1.80;;;23.40;44.70;;;;;;5014114;28;20054;-66
2022/05/20 11:32:11;;;;;;;1.80;1.70;;;23.60;44.40;;;;;;5013872;28;20053;-67
2022/05/20 11:35:04;;;;;;;2.63;1.80;;;23.60;44.10;;;;;;5014362;28;20045;-67
2022/05/20 11:38:05;;;;;;;2.15;1.60;;;23.70;44.00;;;;;;5014307;28;20361;-67
2022/05/20 11:40:47;;;;;;;1.98;1.58;;;23.80;43.80;;;;;;5015043;28;20032;-67
2022/05/20 11:43:47;;;;;;;2.63;1.80;;;23.80;43.70;;;;;;5015763;28;20066;-66
2022/05/20 11:46:40;;;;;;;1.73;1.50;;;23.90;43.60;;;;;;5014124;28;20057;-68
2022/05/20 11:49:14;;;;;;;1.60;1.50;;;24.00;43.40;;;;;;5013829;28;20037;-66
2022/05/20 11:51:52;;;;;;;2.40;1.73;;;24.10;43.30;;;;;;5014095;28;20040;-68
2022/05/20 11:54:19;;;;;;;2.35;1.45;;;24.20;43.20;;;;;;5013138;28;20025;-67
2022/05/20 11:56:51;;;;;;;1.60;1.50;;;24.30;43.10;;;;;;5014287;28;20464;-66
2022/05/20 11:59:23;;;;;;;1.95;1.63;;;24.40;42.90;;;;;;5012971;28;20030;-66
2022/05/20 12:01:51;;;;;;;1.60;1.50;;;24.50;42.70;;;;;;5014147;28;20049;-66
2022/05/20 12:04:20;;;;;;;3.97;1.45;;;24.60;42.50;;;;;;5014268;28;20041;-68
2022/05/20 12:06:59;;;;;;;2.17;1.50;;;24.60;42.30;;;;;;5014109;28;20548;-67
2022/05/20 12:09:47;;;;;;;4.78;1.70;;;24.70;42.00;;;;;;5014181;28;20088;-67
2022/05/20 12:12:32;;;;;;;1.65;1.40;;;24.70;41.70;;;;;;5013984;28;20034;-68
2022/05/20 12:14:58;;;;;;;1.63;1.42;;;24.70;41.60;;;;;;5014356;28;20030;-67
2022/05/20 12:17:41;;;;;;;1.55;1.30;;;24.80;41.60;;;;;;5012514;28;20049;-67
2022/05/20 12:25:57;;;;;;;1.20;1.10;;;25.00;41.10;;;;;;5013718;28;20189;-67
2022/05/20 12:28:23;;;;;;;2.05;1.25;;;25.10;41.00;;;;;;5012341;28;20418;-67
2022/05/20 12:31:13;;;;;;;1.95;1.23;;;25.20;40.90;;;;;;5013493;28;20030;-68
2022/05/20 12:34:06;;;;;;;2.40;1.45;;;25.30;40.60;;;;;;5013878;28;20053;-68
2022/05/20 12:36:31;;;;;;;1.10;1.05;;;25.40;40.40;;;;;;5014218;28;20041;-68
2022/05/20 12:39:10;;;;;;;2.20;1.48;;;25.50;40.60;;;;;;5013781;28;20030;-67
2022/05/20 12:41:50;;;;;;;1.83;1.60;;;25.60;40.30;;;;;;5016802;28;20141;-66
2022/05/20 12:44:15;;;;;;;1.67;1.40;;;25.60;40.20;;;;;;5017610;28;20026;-68
2022/05/20 12:46:57;;;;;;;1.42;1.33;;;25.70;40.20;;;;;;5017603;28;20045;-67
2022/05/20 12:49:26;;;;;;;1.55;1.45;;;25.70;40.00;;;;;;5017331;28;20057;-67
2022/05/20 12:51:54;;;;;;;1.15;1.05;;;25.80;40.00;;;;;;5017384;28;20061;-67
2022/05/20 12:54:25;;;;;;;1.65;1.20;;;25.80;39.90;;;;;;5016202;28;20081;-68
2022/05/20 12:57:15;;;;;;;1.58;1.48;;;25.90;39.90;;;;;;5027689;28;20044;-67
2022/05/20 12:59:41;;;;;;;2.45;1.30;;;26.00;39.70;;;;;;5036509;28;20108;-68
2022/05/20 13:02:15;;;;;;;2.22;1.25;;;26.00;39.80;;;;;;5036818;28;20029;-68
2022/05/20 13:04:57;;;;;;;2.38;1.50;;;26.00;39.70;;;;;;5036665;28;20029;-67
2022/05/20 13:07:23;;;;;;;1.40;1.30;;;25.90;39.60;;;;;;5035793;28;20025;-66
2022/05/20 13:09:49;;;;;;;1.75;1.50;;;25.80;39.60;;;;;;5035517;28;20072;-66
2022/05/20 13:12:19;;;;;;;1.70;1.58;;;25.70;39.50;;;;;;5036954;28;20545;-67
2022/05/20 13:15:19;;;;;;;1.52;1.42;;;25.60;39.50;;;;;;5035367;28;20025;-67
2022/05/20 13:18:12;;;;;;;2.20;1.50;;;25.50;39.40;;;;;;5035680;28;20455;-69
2022/05/20 13:20:41;;;;;;;2.10;1.45;;;25.40;39.50;;;;;;5036571;28;20034;-66
2022/05/20 13:23:08;;;;;;;1.30;1.20;;;25.30;39.50;;;;;;5036249;28;20057;-66
2022/05/20 13:25:34;;;;;;;1.38;1.27;;;25.30;39.60;;;;;;5036792;28;20502;-68
2022/05/20 13:27:59;;;;;;;1.88;1.52;;;25.10;39.50;;;;;;5036322;28;20124;-66
2022/05/20 13:30:30;;;;;;;2.05;1.50;;;25.10;39.60;;;;;;5036291;28;20025;-67
2022/05/20 13:33:09;;;;;;;1.35;1.25;;;25.10;39.60;;;;;;5035004;28;20048;-67
2022/05/20 13:35:52;;;;;;;2.05;1.30;;;25.10;39.80;;;;;;5035061;28;20025;-68
2022/05/20 13:38:20;;;;;;;1.25;1.15;;;25.30;39.90;;;;;;5035132;28;20029;-67
2022/05/20 13:40:46;;;;;;;1.98;1.42;;;25.50;40.00;;;;;;5036377;28;20098;-67
2022/05/20 13:43:13;;;;;;;1.48;1.38;;;25.90;39.90;;;;;;5035914;28;20055;-66
2022/05/20 13:51:40;;;;;;;2.95;2.40;;;27.30;39.30;;;;;;5035654;28;20117;-67
2022/05/20 13:54:13;;;;;;;2.60;2.33;;;27.90;38.80;;;;;;5035884;28;20026;-67
2022/05/20 13:56:45;;;;;;;3.53;2.50;;;28.20;38.40;;;;;;5034712;28;20483;-67
2022/05/20 13:59:22;;;;;;;2.55;2.22;;;28.60;38.40;;;;;;5036194;28;20056;-67